createdAt,value
2023-04-06T00:00:13.494Z,6.25
2023-04-06T00:02:40.157Z,5.13
2023-04-06T00:05:07.034Z,5.60
2023-04-06T00:07:34.520Z,4.03
2023-04-06T00:10:01.468Z,3.50
2023-04-06T00:12:28.340Z,5.30
2023-04-06T00:14:54.774Z,5.20
2023-04-06T00:17:21.486Z,5.78
2023-04-06T00:19:48.175Z,4.75
2023-04-06T00:22:14.938Z,4.35
2023-04-06T00:24:41.413Z,5.45
2023-04-06T00:27:08.125Z,5.13
2023-04-06T00:29:35.030Z,4.88
2023-04-06T00:32:01.466Z,5.32
2023-04-06T00:34:28.219Z,5.35
2023-04-06T00:36:54.609Z,8.50
2023-04-06T00:39:21.432Z,5.32
2023-04-06T00:41:51.362Z,5.95
2023-04-06T00:44:18.142Z,4.43
2023-04-06T00:46:44.714Z,3.42
2023-04-06T00:49:11.980Z,5.15
2023-04-06T00:51:38.615Z,6.50
2023-04-06T00:54:05.403Z,5.35
2023-04-06T00:56:35.969Z,6.03
2023-04-06T00:59:02.694Z,7.22
2023-04-06T01:01:29.785Z,6.68
2023-04-06T01:03:59.963Z,8.70
2023-04-06T01:06:26.743Z,4.75
2023-04-06T01:09:02.583Z,6.07
2023-04-06T01:11:29.519Z,6.07
2023-04-06T01:13:57.248Z,5.32
2023-04-06T01:16:27.566Z,5.18
2023-04-06T01:19:11.028Z,9.13
2023-04-06T01:21:40.983Z,4.93
2023-04-06T01:24:31.075Z,5.35
2023-04-06T01:27:18.038Z,4.80
2023-04-06T01:30:14.538Z,5.15
2023-04-06T01:33:00.847Z,7.90
2023-04-06T01:35:39.486Z,7.68
2023-04-06T01:38:13.085Z,6.95
2023-04-06T01:40:39.639Z,5.97
2023-04-06T01:43:06.532Z,6.68
2023-04-06T01:45:48.176Z,5.47
2023-04-06T01:48:19.462Z,7.00
2023-04-06T01:50:46.409Z,5.53
2023-04-06T01:53:17.525Z,5.88
2023-04-06T01:55:45.391Z,8.65
2023-04-06T01:58:24.086Z,7.28
2023-04-06T02:00:51.143Z,6.10
2023-04-06T02:03:18.399Z,6.00
2023-04-06T02:05:46.111Z,6.90
2023-04-06T02:08:27.216Z,8.52
2023-04-06T02:10:54.109Z,7.40
2023-04-06T02:13:29.155Z,8.23
2023-04-06T02:15:56.234Z,8.20
2023-04-06T02:18:23.485Z,7.63
2023-04-06T02:20:49.943Z,10.63
2023-04-06T02:23:16.553Z,5.68
2023-04-06T02:25:43.371Z,8.80
2023-04-06T02:28:10.017Z,7.85
2023-04-06T02:30:36.563Z,8.90
2023-04-06T02:33:03.846Z,5.70
2023-04-06T02:35:40.526Z,7.65
2023-04-06T02:38:07.761Z,11.50
2023-04-06T02:40:34.345Z,9.43
2023-04-06T02:43:09.494Z,9.77
2023-04-06T02:45:36.246Z,11.93
2023-04-06T02:48:03.660Z,8.30
2023-04-06T02:50:32.168Z,8.45
2023-04-06T02:53:02.942Z,5.72
2023-04-06T02:55:29.692Z,6.47
2023-04-06T02:57:56.469Z,9.05
2023-04-06T03:00:28.726Z,10.07
2023-04-06T03:02:55.661Z,7.47
2023-04-06T03:05:23.236Z,10.73
2023-04-06T03:07:50.006Z,6.43
2023-04-06T03:10:29.621Z,6.53
2023-04-06T03:12:56.405Z,5.55
2023-04-06T03:15:26.556Z,7.70
2023-04-06T03:18:02.198Z,7.65
2023-04-06T03:20:35.609Z,8.40
2023-04-06T03:23:02.716Z,7.00
2023-04-06T03:25:34.114Z,7.10
2023-04-06T03:28:04.313Z,6.93
2023-04-06T03:30:33.558Z,6.68
2023-04-06T03:33:00.392Z,6.55
2023-04-06T03:35:30.915Z,7.18
2023-04-06T03:37:57.560Z,6.95
2023-04-06T03:40:25.469Z,7.60
2023-04-06T03:42:52.076Z,8.10
2023-04-06T03:45:18.880Z,8.73
2023-04-06T03:47:48.308Z,8.50
2023-04-06T03:50:15.643Z,7.20
2023-04-06T03:52:42.145Z,6.65
2023-04-06T03:55:09.486Z,6.10
2023-04-06T03:57:38.685Z,8.95
2023-04-06T04:00:05.455Z,6.20
2023-04-06T04:02:39.612Z,8.20
2023-04-06T04:05:06.629Z,7.78
2023-04-06T04:07:33.311Z,9.50
2023-04-06T04:10:02.755Z,8.60
2023-04-06T04:12:30.118Z,8.15
2023-04-06T04:14:58.241Z,7.43
2023-04-06T04:17:25.311Z,8.38
2023-04-06T04:19:51.710Z,8.10
2023-04-06T04:22:18.309Z,8.85
2023-04-06T04:24:44.889Z,6.07
2023-04-06T04:27:11.698Z,8.88
2023-04-06T04:29:40.129Z,9.18
2023-04-06T04:32:09.709Z,8.20
2023-04-06T04:34:37.288Z,8.77
2023-04-06T04:37:06.196Z,9.40
2023-04-06T04:39:52.934Z,7.38
2023-04-06T04:42:19.502Z,10.13
2023-04-06T04:44:51.183Z,9.05
2023-04-06T04:47:29.125Z,7.03
2023-04-06T04:49:55.963Z,9.98
2023-04-06T04:52:25.386Z,8.50
2023-04-06T04:54:58.721Z,7.80
2023-04-06T04:57:28.974Z,8.30
2023-04-06T04:59:57.887Z,12.40
2023-04-06T05:02:24.771Z,9.15
2023-04-06T05:05:00.533Z,10.43
2023-04-06T05:07:28.945Z,11.80
2023-04-06T05:09:57.615Z,7.15
2023-04-06T05:12:28.515Z,12.52
2023-04-06T05:15:04.294Z,8.40
2023-04-06T05:17:31.054Z,8.93
2023-04-06T05:19:57.870Z,8.18
2023-04-06T05:22:27.510Z,8.90
2023-04-06T05:25:03.939Z,10.65
2023-04-06T05:27:31.935Z,7.75
2023-04-06T05:30:02.627Z,9.88
2023-04-06T05:32:33.089Z,8.70
2023-04-06T05:34:59.651Z,8.55
2023-04-06T05:37:26.717Z,10.27
2023-04-06T05:39:54.336Z,7.72
2023-04-06T05:42:23.400Z,14.05
2023-04-06T05:44:58.717Z,8.00
2023-04-06T05:47:26.149Z,9.05
2023-04-06T05:50:01.891Z,9.70
2023-04-06T05:52:35.248Z,7.22
2023-04-06T05:55:01.927Z,10.13
2023-04-06T05:57:30.171Z,7.10
2023-04-06T05:59:57.257Z,8.63
2023-04-06T06:02:28.458Z,7.50
2023-04-06T06:04:56.216Z,8.10
2023-04-06T06:07:25.198Z,9.30
2023-04-06T06:09:59.146Z,10.02
2023-04-06T06:12:31.145Z,10.37
2023-04-06T06:14:59.346Z,8.05
2023-04-06T06:17:27.752Z,11.68
2023-04-06T06:19:54.427Z,13.13
2023-04-06T06:22:22.520Z,21.05
2023-04-06T06:24:51.392Z,12.32
2023-04-06T06:27:19.921Z,10.70
2023-04-06T06:29:47.445Z,13.15
2023-04-06T06:32:15.066Z,10.23
2023-04-06T06:34:42.559Z,14.50
2023-04-06T06:37:10.638Z,8.80
2023-04-06T06:39:38.666Z,11.65
2023-04-06T06:42:05.318Z,9.63
2023-04-06T06:45:02.234Z,13.60
2023-04-06T06:47:29.029Z,9.30
2023-04-06T06:49:56.065Z,10.75
2023-04-06T06:52:24.368Z,11.88
2023-04-06T06:54:51.315Z,12.50
2023-04-06T06:57:19.816Z,14.38
2023-04-06T06:59:47.404Z,15.05
2023-04-06T07:02:14.023Z,14.27
2023-04-06T07:04:40.832Z,14.90
2023-04-06T07:07:08.219Z,10.70
2023-04-06T07:09:35.538Z,13.95
2023-04-06T07:12:03.047Z,11.07
2023-04-06T07:14:29.881Z,11.98
2023-04-06T07:16:56.462Z,11.10
2023-04-06T07:19:24.548Z,12.23
2023-04-06T07:21:51.145Z,15.55
2023-04-06T07:24:17.599Z,11.25
2023-04-06T07:26:45.358Z,11.40
2023-04-06T07:29:12.165Z,11.68
2023-04-06T07:31:38.824Z,13.73
2023-04-06T07:34:05.920Z,14.70
2023-04-06T07:36:32.988Z,11.23
2023-04-06T07:39:00.050Z,13.40
2023-04-06T07:41:26.869Z,11.23
2023-04-06T07:43:53.714Z,11.15
2023-04-06T07:46:22.225Z,10.68
2023-04-06T07:48:50.942Z,12.85
2023-04-06T07:51:18.536Z,12.00
2023-04-06T07:53:46.211Z,12.15
2023-04-06T07:56:13.462Z,11.05
2023-04-06T07:58:39.946Z,15.40
2023-04-06T08:01:06.504Z,11.48
2023-04-06T08:03:34.697Z,11.27
2023-04-06T08:06:01.538Z,12.77
2023-04-06T08:08:27.987Z,14.25
2023-04-06T08:10:54.520Z,13.55
2023-04-06T08:13:21.345Z,14.40
2023-04-06T08:15:48.090Z,13.63
2023-04-06T08:18:15.383Z,13.75
2023-04-06T08:20:41.890Z,12.73
2023-04-06T08:23:10.317Z,12.18
2023-04-06T08:25:37.084Z,11.88
2023-04-06T08:28:04.434Z,12.63
2023-04-06T08:30:30.978Z,13.25
2023-04-06T08:32:57.406Z,11.60
2023-04-06T08:35:24.065Z,11.32
2023-04-06T08:37:50.841Z,11.57
2023-04-06T08:40:17.466Z,12.00
2023-04-06T08:42:46.103Z,10.52
2023-04-06T08:45:13.193Z,11.63
2023-04-06T08:47:40.224Z,11.57
2023-04-06T08:50:07.440Z,10.70
2023-04-06T08:52:36.716Z,11.55
2023-04-06T08:55:03.348Z,10.52
2023-04-06T08:57:30.061Z,11.20
2023-04-06T08:59:57.447Z,9.98
2023-04-06T09:02:24.251Z,11.13
2023-04-06T09:04:53.394Z,10.35
2023-04-06T09:07:20.238Z,11.07
2023-04-06T09:09:49.744Z,11.10
2023-04-06T09:12:26.713Z,11.63
2023-04-06T09:14:53.336Z,10.23
2023-04-06T09:17:24.590Z,12.10
2023-04-06T09:19:51.264Z,10.15
2023-04-06T09:22:18.836Z,10.07
2023-04-06T09:24:49.934Z,9.55
2023-04-06T09:27:17.132Z,10.07
2023-04-06T09:29:44.044Z,10.93
2023-04-06T09:32:17.795Z,11.30
2023-04-06T09:34:44.681Z,12.45
2023-04-06T09:37:17.633Z,11.27
2023-04-06T09:39:44.379Z,10.60
2023-04-06T09:42:11.158Z,11.68
2023-04-06T09:44:37.663Z,11.48
2023-04-06T09:47:07.550Z,12.80
2023-04-06T09:49:34.662Z,13.30
2023-04-06T09:52:02.566Z,10.98
2023-04-06T09:54:30.742Z,11.07
2023-04-06T09:56:59.948Z,10.80
2023-04-06T09:59:46.092Z,14.25
2023-04-06T10:02:19.595Z,11.52
2023-04-06T10:04:54.086Z,12.02
2023-04-06T10:09:47.956Z,13.73
2023-04-06T10:12:16.722Z,12.07
2023-04-06T10:14:44.034Z,13.00
2023-04-06T10:17:12.630Z,13.88
2023-04-06T10:19:51.285Z,13.13
2023-04-06T10:22:23.966Z,13.27
2023-04-06T10:24:50.510Z,11.15
2023-04-06T10:27:17.026Z,13.85
2023-04-06T10:29:45.076Z,14.70
2023-04-06T10:32:12.023Z,12.70
2023-04-06T10:34:38.792Z,19.10
2023-04-06T10:37:12.557Z,11.57
2023-04-06T10:39:46.964Z,11.02
2023-04-06T10:42:13.946Z,10.95
2023-04-06T10:44:44.230Z,12.90
2023-04-06T10:47:16.940Z,13.82
2023-04-06T10:49:43.673Z,11.73
2023-04-06T10:52:10.915Z,11.60
2023-04-06T10:54:41.780Z,12.43
2023-04-06T10:57:08.581Z,13.57
2023-04-06T10:59:35.419Z,12.65
2023-04-06T11:02:02.257Z,13.02
2023-04-06T11:04:29.035Z,17.23
2023-04-06T11:06:56.810Z,14.77
2023-04-06T11:09:27.259Z,15.68
2023-04-06T11:11:54.309Z,17.92
2023-04-06T11:14:21.382Z,15.13
2023-04-06T11:16:49.615Z,17.65
2023-04-06T11:19:16.445Z,14.57
2023-04-06T11:21:49.501Z,17.67
2023-04-06T11:24:18.866Z,16.55
2023-04-06T11:26:47.312Z,13.95
2023-04-06T11:29:14.403Z,13.48
2023-04-06T11:31:46.213Z,15.52
2023-04-06T11:34:13.529Z,16.58
2023-04-06T11:36:43.564Z,15.80
2023-04-06T11:39:10.213Z,15.30
2023-04-06T11:41:37.249Z,17.90
2023-04-06T11:44:05.039Z,15.00
2023-04-06T11:46:31.672Z,17.75
2023-04-06T11:49:02.063Z,15.23
2023-04-06T11:51:29.606Z,16.45
2023-04-06T11:53:57.033Z,15.75
2023-04-06T11:56:24.626Z,18.73
2023-04-06T11:58:51.398Z,16.35
2023-04-06T12:01:18.139Z,20.02
2023-04-06T12:03:44.941Z,16.48
2023-04-06T12:06:11.755Z,20.48
2023-04-06T12:08:38.526Z,18.23
2023-04-06T12:11:05.148Z,19.38
2023-04-06T12:13:31.853Z,20.20
2023-04-06T12:15:58.517Z,16.48
2023-04-06T12:18:24.946Z,19.00
2023-04-06T12:20:52.276Z,18.02
2023-04-06T12:23:19.818Z,17.73
2023-04-06T12:25:46.546Z,18.02
2023-04-06T12:28:14.426Z,18.33
2023-04-06T12:30:42.182Z,18.30
2023-04-06T12:33:08.684Z,15.43
2023-04-06T12:35:35.635Z,17.38
2023-04-06T12:38:02.324Z,15.23
2023-04-06T12:40:28.733Z,16.63
2023-04-06T12:42:56.538Z,15.07
2023-04-06T12:45:23.293Z,20.55
2023-04-06T12:47:49.916Z,14.98
2023-04-06T12:50:16.667Z,18.73
2023-04-06T12:52:43.038Z,18.92
2023-04-06T12:55:10.352Z,16.83
2023-04-06T12:57:38.140Z,17.48
2023-04-06T13:00:07.113Z,15.98
2023-04-06T13:02:35.764Z,16.13
2023-04-06T13:05:02.413Z,15.88
2023-04-06T13:07:29.106Z,13.95
2023-04-06T13:09:55.581Z,16.33
2023-04-06T13:12:22.405Z,16.05
2023-04-06T13:14:52.043Z,19.95
2023-04-06T13:17:18.553Z,15.52
2023-04-06T13:19:45.238Z,14.02
2023-04-06T13:22:11.831Z,15.23
2023-04-06T13:24:38.357Z,12.63
2023-04-06T13:27:04.812Z,15.77
2023-04-06T13:29:31.303Z,15.18
2023-04-06T13:31:57.775Z,11.32
2023-04-06T13:34:24.177Z,12.63
2023-04-06T13:36:50.960Z,14.55
2023-04-06T13:39:18.118Z,14.32
2023-04-06T13:41:44.642Z,16.15
2023-04-06T13:44:11.560Z,14.20
2023-04-06T13:46:38.359Z,17.45
2023-04-06T13:49:05.063Z,15.18
2023-04-06T13:51:32.165Z,15.57
2023-04-06T13:53:59.274Z,18.10
2023-04-06T13:56:26.046Z,16.95
2023-04-06T13:58:54.662Z,16.35
2023-04-06T14:01:21.497Z,15.30
2023-04-06T14:03:49.875Z,14.88
2023-04-06T14:06:29.686Z,15.68
2023-04-06T14:08:58.450Z,19.10
2023-04-06T14:11:25.169Z,13.43
2023-04-06T14:13:54.725Z,18.10
2023-04-06T14:16:24.740Z,13.40
2023-04-06T14:18:52.068Z,13.88
2023-04-06T14:21:19.545Z,11.98
2023-04-06T14:23:47.060Z,16.48
2023-04-06T14:26:14.181Z,12.52
2023-04-06T14:28:40.990Z,14.88
2023-04-06T14:31:13.108Z,14.02
2023-04-06T14:33:40.597Z,15.27
2023-04-06T14:36:08.030Z,11.68
2023-04-06T14:38:34.766Z,12.93
2023-04-06T14:41:01.832Z,14.00
2023-04-06T14:43:28.291Z,15.40
2023-04-06T14:45:55.179Z,12.55
2023-04-06T14:48:21.818Z,12.60
2023-04-06T14:50:56.180Z,14.50
2023-04-06T14:53:23.008Z,12.63
2023-04-06T14:55:52.271Z,12.38
2023-04-06T14:58:21.629Z,11.65
2023-04-06T15:00:48.703Z,12.73
2023-04-06T15:03:15.839Z,11.13
2023-04-06T15:05:42.779Z,16.98
2023-04-06T15:08:13.229Z,13.45
2023-04-06T15:10:40.832Z,13.80
2023-04-06T15:13:09.701Z,13.18
2023-04-06T15:15:36.935Z,12.93
2023-04-06T15:18:03.795Z,10.40
2023-04-06T15:20:30.299Z,11.48
2023-04-06T15:22:56.731Z,11.43
2023-04-06T15:25:23.449Z,10.98
2023-04-06T15:27:50.172Z,12.45
2023-04-06T15:30:16.803Z,13.00
2023-04-06T15:33:04.805Z,12.20
2023-04-06T15:35:31.518Z,9.88
2023-04-06T15:37:58.613Z,9.35
2023-04-06T15:40:25.668Z,9.55
2023-04-06T15:42:52.069Z,13.52
2023-04-06T15:45:18.501Z,10.13
2023-04-06T15:47:45.813Z,11.63
2023-04-06T15:50:12.655Z,9.45
2023-04-06T15:52:39.657Z,8.15
2023-04-06T15:55:06.897Z,8.90
2023-04-06T15:57:33.921Z,11.15
2023-04-06T16:00:01.215Z,7.47
2023-04-06T16:02:28.362Z,8.65
2023-04-06T16:04:57.025Z,9.05
2023-04-06T16:07:23.760Z,7.82
2023-04-06T16:09:51.214Z,8.82
2023-04-06T16:12:18.357Z,9.07
2023-04-06T16:14:45.146Z,8.88
2023-04-06T16:17:12.464Z,9.40
2023-04-06T16:19:39.459Z,9.30
2023-04-06T16:22:06.311Z,9.15
2023-04-06T16:24:32.893Z,8.60
2023-04-06T16:26:59.438Z,10.23
2023-04-06T16:29:27.406Z,10.65
2023-04-06T16:31:56.143Z,11.57
2023-04-06T16:34:22.777Z,11.20
2023-04-06T16:36:49.254Z,10.77
2023-04-06T16:39:17.256Z,8.55
2023-04-06T16:41:43.884Z,8.48
2023-04-06T16:44:11.450Z,9.05
2023-04-06T16:46:39.145Z,7.15
2023-04-06T16:49:07.057Z,10.07
2023-04-06T16:51:33.502Z,7.28
2023-04-06T16:54:00.242Z,7.82
2023-04-06T16:56:27.623Z,8.73
2023-04-06T16:58:53.977Z,7.90
2023-04-06T17:01:26.803Z,7.13
2023-04-06T17:03:53.975Z,5.15
2023-04-06T17:06:20.898Z,7.65
2023-04-06T17:08:48.369Z,7.72
2023-04-06T17:11:19.039Z,8.85
2023-04-06T17:13:48.811Z,7.75
2023-04-06T17:16:15.977Z,6.57
2023-04-06T17:18:42.594Z,6.63
2023-04-06T17:21:14.577Z,5.85
2023-04-06T17:23:41.664Z,7.22
2023-04-06T17:26:08.452Z,6.00
2023-04-06T17:28:35.007Z,6.70
2023-04-06T17:31:02.849Z,6.15
2023-04-06T17:33:29.714Z,6.65
2023-04-06T17:35:56.530Z,7.97
2023-04-06T17:38:24.101Z,5.97
2023-04-06T17:40:50.778Z,7.07
2023-04-06T17:43:17.491Z,7.25
2023-04-06T17:45:44.534Z,7.28
2023-04-06T17:48:11.241Z,6.25
2023-04-06T17:50:39.215Z,9.15
2023-04-06T17:53:07.153Z,7.18
2023-04-06T17:55:34.207Z,9.35
2023-04-06T17:58:00.971Z,8.55
2023-04-06T18:00:27.586Z,8.77
2023-04-06T18:02:55.044Z,9.55
2023-04-06T18:05:21.997Z,6.57
2023-04-06T18:07:49.539Z,7.40
2023-04-06T18:10:17.262Z,9.93
2023-04-06T18:12:43.650Z,11.18
2023-04-06T18:15:10.690Z,7.03
2023-04-06T18:17:37.379Z,9.55
2023-04-06T18:20:04.086Z,8.82
2023-04-06T18:22:32.847Z,7.68
2023-04-06T18:25:01.388Z,8.48
2023-04-06T18:27:27.961Z,7.55
2023-04-06T18:29:54.317Z,8.23
2023-04-06T18:32:20.874Z,9.30
2023-04-06T18:34:47.572Z,7.20
2023-04-06T18:37:14.001Z,8.73
2023-04-06T18:39:43.025Z,10.38
2023-04-06T18:42:09.328Z,7.90
2023-04-06T18:44:36.006Z,7.55
2023-04-06T18:47:02.433Z,7.75
2023-04-06T18:49:29.000Z,9.63
2023-04-06T18:51:57.513Z,8.57
2023-04-06T18:54:23.995Z,8.63
2023-04-06T18:56:52.230Z,11.00
2023-04-06T18:59:19.753Z,8.95
2023-04-06T19:01:50.862Z,9.10
2023-04-06T19:04:17.796Z,10.07
2023-04-06T19:06:44.827Z,10.15
2023-04-06T19:09:11.196Z,8.63
2023-04-06T19:11:37.687Z,9.80
2023-04-06T19:14:04.227Z,11.32
2023-04-06T19:16:31.010Z,11.88
2023-04-06T19:18:57.613Z,10.13
2023-04-06T19:21:26.183Z,12.63
2023-04-06T19:23:55.220Z,10.80
2023-04-06T19:26:22.955Z,11.73
2023-04-06T19:28:49.895Z,10.70
2023-04-06T19:31:17.209Z,11.65
2023-04-06T19:33:45.293Z,14.43
2023-04-06T19:36:12.014Z,10.52
2023-04-06T19:38:38.843Z,12.55
2023-04-06T19:41:05.509Z,15.30
2023-04-06T19:43:33.238Z,11.70
2023-04-06T19:46:02.810Z,12.10
2023-04-06T19:48:29.385Z,14.57
2023-04-06T19:50:56.172Z,13.45
2023-04-06T19:53:23.395Z,16.70
2023-04-06T19:55:50.674Z,13.13
2023-04-06T19:58:18.563Z,14.20
2023-04-06T20:00:44.920Z,13.57
2023-04-06T20:03:11.535Z,15.40
2023-04-06T20:05:38.320Z,13.40
2023-04-06T20:08:04.994Z,15.40
2023-04-06T20:10:31.395Z,16.98
2023-04-06T20:12:58.276Z,14.15
2023-04-06T20:15:25.495Z,17.05
2023-04-06T20:17:52.275Z,14.55
2023-04-06T20:20:18.801Z,15.38
2023-04-06T20:22:46.405Z,16.10
2023-04-06T20:25:13.474Z,15.75
2023-04-06T20:27:39.942Z,16.95
2023-04-06T20:30:07.202Z,17.55
2023-04-06T20:32:33.814Z,14.88
2023-04-06T20:35:00.845Z,13.95
2023-04-06T20:37:27.494Z,15.93
2023-04-06T20:39:54.337Z,14.20
2023-04-06T20:42:22.807Z,16.38
2023-04-06T20:44:50.413Z,14.60
2023-04-06T20:47:17.037Z,14.93
2023-04-06T20:49:43.563Z,13.65
2023-04-06T20:52:10.052Z,16.17
2023-04-06T20:54:36.445Z,16.35
2023-04-06T20:57:02.868Z,14.35
2023-04-06T20:59:29.411Z,16.73
2023-04-06T21:01:55.926Z,17.95
2023-04-06T21:04:23.929Z,19.65
2023-04-06T21:06:50.944Z,17.20
2023-04-06T21:09:19.666Z,17.50
2023-04-06T21:11:46.257Z,21.85
2023-04-06T21:14:13.013Z,19.52
2023-04-06T21:16:39.506Z,19.90
2023-04-06T21:19:05.914Z,21.25
2023-04-06T21:21:32.213Z,20.80
2023-04-06T21:24:00.152Z,20.27
2023-04-06T21:26:26.850Z,20.95
2023-04-06T21:28:53.423Z,22.58
2023-04-06T21:31:21.549Z,22.52
2023-04-06T21:33:49.016Z,24.65
2023-04-06T21:36:21.869Z,23.65
2023-04-06T21:38:48.750Z,23.77
2023-04-06T21:41:15.582Z,25.48
2023-04-06T21:43:42.559Z,24.10
2023-04-06T21:46:09.692Z,25.55
2023-04-06T21:48:36.116Z,24.92
2023-04-06T21:51:02.619Z,24.10
2023-04-06T21:53:29.291Z,23.35
2023-04-06T21:55:56.096Z,25.92
2023-04-06T21:58:22.812Z,25.67
2023-04-06T22:00:49.508Z,25.10
2023-04-06T22:03:16.221Z,26.20
2023-04-06T22:05:42.950Z,27.77
2023-04-06T22:08:15.122Z,25.73
2023-04-06T22:10:44.671Z,26.85
2023-04-06T22:13:13.231Z,29.35
2023-04-06T22:15:39.720Z,29.40
2023-04-06T22:18:06.441Z,27.38
2023-04-06T22:20:34.306Z,27.88
2023-04-06T22:23:00.829Z,28.80
2023-04-06T22:25:27.580Z,27.60
2023-04-06T22:27:53.990Z,28.00
2023-04-06T22:30:20.624Z,29.60
2023-04-06T22:32:47.236Z,30.80
2023-04-06T22:35:13.825Z,28.05
2023-04-06T22:37:44.179Z,27.58
2023-04-06T22:40:11.500Z,28.88
2023-04-06T22:42:38.160Z,29.42
2023-04-06T22:45:04.867Z,26.95
2023-04-06T22:47:31.382Z,32.63
2023-04-06T22:49:57.965Z,31.35
2023-04-06T22:52:24.333Z,30.23
2023-04-06T22:54:53.350Z,32.03
2023-04-06T22:57:20.033Z,30.92
2023-04-06T22:59:46.730Z,32.90
2023-04-06T23:02:14.388Z,32.85
2023-04-06T23:04:41.387Z,36.00
2023-04-06T23:07:07.845Z,34.40
2023-04-06T23:09:34.644Z,31.95
2023-04-06T23:12:02.135Z,33.40
2023-04-06T23:14:31.248Z,36.72
2023-04-06T23:16:57.821Z,38.28
2023-04-06T23:19:24.521Z,40.53
2023-04-06T23:21:51.047Z,43.42
2023-04-06T23:24:18.853Z,47.83
2023-04-06T23:26:48.145Z,45.72
2023-04-06T23:29:14.461Z,46.60
2023-04-06T23:31:41.080Z,52.30
2023-04-06T23:34:07.740Z,51.55
2023-04-06T23:36:34.449Z,53.78
2023-04-06T23:39:01.207Z,55.80
2023-04-06T23:41:27.970Z,52.95
2023-04-06T23:43:56.096Z,46.65
2023-04-06T23:46:23.034Z,51.65
2023-04-06T23:48:49.543Z,49.38
2023-04-06T23:51:16.346Z,45.78
2023-04-06T23:53:43.090Z,49.08
2023-04-06T23:56:09.704Z,49.78
2023-04-06T23:58:36.755Z,47.88
